Time;durP1;ratioP1;P1;durP2;ratioP2;P2;SDS_P1;SDS_P2;PMS_P1;PMS_P2;Temp;Humidity;BMP_temperature;BMP_pressure;BME280_temperature;BME280_humidity;BME280_pressure;Samples;Min_cycle;Max_cycle;Signal;HPM_P1;HPM_P2
2023/07/24 00:01:41;;;;;;;;;;;30.10;99.90;;;;;;5134220;28;19904;-74
2023/07/24 00:04:07;;;;;;;;;;;30.10;99.90;;;;;;5133950;27;19918;-74
2023/07/24 00:06:33;;;;;;;;;;;30.20;99.90;;;;;;5133729;28;19910;-74
2023/07/24 00:08:59;;;;;;;;;;;30.20;99.90;;;;;;5132346;28;20323;-74
2023/07/24 00:11:25;;;;;;;;;;;30.20;99.90;;;;;;5133779;27;19904;-74
2023/07/24 00:13:50;;;;;;;;;;;30.20;99.90;;;;;;5133593;28;20376;-74
2023/07/24 00:16:16;;;;;;;;;;;30.20;99.90;;;;;;5133975;27;19997;-74
2023/07/24 00:18:42;;;;;;;;;;;30.10;99.90;;;;;;5133557;28;19928;-73
2023/07/24 00:21:08;;;;;;;;;;;30.20;99.90;;;;;;5132141;28;19950;-73
2023/07/24 00:23:34;;;;;;;;;;;30.20;99.90;;;;;;5132085;28;19916;-73
2023/07/24 00:25:59;;;;;;;;;;;30.20;99.90;;;;;;5133422;28;19903;-73
2023/07/24 00:28:25;;;;;;;;;;;30.20;99.90;;;;;;5133321;27;20248;-74
2023/07/24 00:30:51;;;;;;;;;;;30.20;99.90;;;;;;5132070;28;19904;-74
2023/07/24 00:33:17;;;;;;;;;;;30.20;99.90;;;;;;5133431;28;19915;-74
2023/07/24 00:35:42;;;;;;;;;;;30.30;99.90;;;;;;5133406;28;19993;-72
2023/07/24 00:38:08;;;;;;;;;;;30.20;99.90;;;;;;5133465;27;19904;-72
2023/07/24 00:40:34;;;;;;;;;;;30.10;99.90;;;;;;5133799;28;19914;-73
2023/07/24 00:43:00;;;;;;;;;;;30.00;99.90;;;;;;5133014;28;20060;-72
2023/07/24 00:45:26;;;;;;;;;;;30.10;99.90;;;;;;5133693;28;19914;-73
2023/07/24 00:47:51;;;;;;;;;;;30.10;99.90;;;;;;5133227;28;19934;-71
2023/07/24 00:50:17;;;;;;;;;;;30.00;99.90;;;;;;5131965;28;20343;-72
2023/07/24 00:52:43;;;;;;;;;;;30.10;99.90;;;;;;5133723;27;19907;-72
2023/07/24 00:55:09;;;;;;;;;;;30.30;99.90;;;;;;5133303;27;19910;-73
2023/07/24 00:57:35;;;;;;;;;;;30.40;99.90;;;;;;5131862;27;19910;-73
2023/07/24 01:00:01;;;;;;;;;;;30.40;99.70;;;;;;5136702;27;19910;-73
2023/07/24 01:02:27;;;;;;;;;;;30.60;98.40;;;;;;5136808;27;19904;-73
2023/07/24 01:04:52;;;;;;;;;;;30.60;98.50;;;;;;5135461;27;19956;-74
2023/07/24 01:07:20;;;;;;;;;;;30.60;97.20;;;;;;5137052;27;19910;-74
2023/07/24 01:09:47;;;;;;;;;;;30.70;96.70;;;;;;5136763;27;19907;-73
2023/07/24 01:12:32;;;;;;;;;;;30.70;96.50;;;;;;5135130;27;19967;-73
2023/07/24 01:15:11;;;;;;;;;;;30.70;97.10;;;;;;5136960;27;19903;-73
2023/07/24 01:17:42;;;;;;;;;;;30.70;95.10;;;;;;5136560;27;19904;-74
2023/07/24 01:20:09;;;;;;;;;;;30.80;94.20;;;;;;5136410;27;19904;-74
2023/07/24 01:22:55;;;;;;;;;;;30.80;93.60;;;;;;5136362;27;20286;-73
2023/07/24 01:25:23;;;;;;;;;;;30.90;93.30;;;;;;5094375;27;19915;-74
2023/07/24 01:27:49;;;;;;;;;;;30.90;92.70;;;;;;5136214;27;19915;-73
2023/07/24 01:30:17;;;;;;;;;;;31.00;92.20;;;;;;5136802;27;19903;-73
2023/07/24 01:32:43;;;;;;;;;;;31.10;92.10;;;;;;5136110;27;19915;-74
2023/07/24 01:35:09;;;;;;;;;;;31.10;91.90;;;;;;5134945;27;19921;-73
2023/07/24 01:37:35;;;;;;;;;;;31.00;91.90;;;;;;5136250;27;19910;-74
2023/07/24 01:40:02;;;;;;;;;;;31.10;91.90;;;;;;5136205;27;20347;-73
2023/07/24 01:42:28;;;;;;;;;;;31.00;91.80;;;;;;5136276;27;19904;-73
2023/07/24 01:44:54;;;;;;;;;;;30.90;91.20;;;;;;5136384;27;19907;-73
2023/07/24 01:47:20;;;;;;;;;;;30.90;90.80;;;;;;5136027;27;20381;-74
2023/07/24 01:49:46;;;;;;;;;;;30.90;90.40;;;;;;5136359;27;19903;-73
2023/07/24 01:52:12;;;;;;;;;;;30.80;90.50;;;;;;5135830;27;20294;-74
2023/07/24 01:54:38;;;;;;;;;;;30.80;90.20;;;;;;5135877;27;19947;-74
2023/07/24 01:57:04;;;;;;;;;;;30.80;89.50;;;;;;5135588;27;19907;-73
2023/07/24 01:59:30;;;;;;;;;;;30.80;87.20;;;;;;5136422;27;19911;-73
2023/07/24 02:01:55;;;;;;;;;;;30.80;90.50;;;;;;5135933;27;20259;-73
2023/07/24 02:04:22;;;;;;;;;;;30.80;85.70;;;;;;5135639;27;20009;-74
2023/07/24 02:06:51;;;;;;;;;;;30.90;82.30;;;;;;5135928;27;19903;-74
2023/07/24 02:09:19;;;;;;;;;;;31.00;86.20;;;;;;5135180;27;19903;-74
2023/07/24 02:11:45;;;;;;;;;;;31.00;88.50;;;;;;5136105;27;19935;-74
2023/07/24 02:14:12;;;;;;;;;;;31.00;87.10;;;;;;5135289;27;19939;-74
2023/07/24 02:16:37;;;;;;;;;;;31.00;86.80;;;;;;5135694;27;20003;-73
2023/07/24 02:19:03;;;;;;;;;;;31.00;90.20;;;;;;5134060;27;20347;-74
2023/07/24 02:21:29;;;;;;;;;;;30.90;90.60;;;;;;5135498;27;19942;-74
2023/07/24 02:23:55;;;;;;;;;;;30.90;90.50;;;;;;5135494;27;20392;-75
2023/07/24 02:26:21;;;;;;;;;;;30.90;90.90;;;;;;5135276;27;19942;-76
2023/07/24 02:28:46;;;;;;;;;;;30.90;90.70;;;;;;5135221;27;20367;-74
2023/07/24 02:31:12;;;;;;;;;;;30.90;90.70;;;;;;5133884;27;19956;-75
2023/07/24 02:33:38;;;;;;;;;;;30.80;90.70;;;;;;5133664;27;20017;-73
2023/07/24 02:36:04;;;;;;;;;;;30.80;90.80;;;;;;5135247;27;19976;-73
2023/07/24 02:38:30;;;;;;;;;;;30.70;91.30;;;;;;5134995;27;19910;-73
2023/07/24 02:40:55;;;;;;;;;;;30.70;92.00;;;;;;5135412;27;20296;-73
2023/07/24 02:43:21;;;;;;;;;;;30.70;92.10;;;;;;5134630;27;19911;-74
2023/07/24 02:45:47;;;;;;;;;;;30.70;91.70;;;;;;5135061;27;19938;-74
2023/07/24 02:48:13;;;;;;;;;;;30.70;92.10;;;;;;5133368;27;19903;-74
2023/07/24 02:50:39;;;;;;;;;;;30.70;91.40;;;;;;5133348;27;20274;-73
2023/07/24 02:53:04;;;;;;;;;;;30.70;91.40;;;;;;5134656;27;20135;-74
2023/07/24 02:55:30;;;;;;;;;;;30.80;91.50;;;;;;5133313;27;19903;-74
2023/07/24 02:57:56;;;;;;;;;;;30.70;92.10;;;;;;5134453;27;19907;-73
2023/07/24 03:00:22;;;;;;;;;;;30.70;91.80;;;;;;5134543;27;19998;-73
2023/07/24 03:02:47;;;;;;;;;;;30.70;91.80;;;;;;5134627;27;19907;-74
2023/07/24 03:05:13;;;;;;;;;;;30.70;91.60;;;;;;5134433;27;19921;-74
2023/07/24 03:07:39;;;;;;;;;;;30.60;92.20;;;;;;5133144;27;19903;-73
2023/07/24 03:10:05;;;;;;;;;;;30.60;91.40;;;;;;5134408;27;20386;-73
2023/07/24 03:12:31;;;;;;;;;;;30.60;91.30;;;;;;5134651;27;19903;-73
2023/07/24 03:14:57;;;;;;;;;;;30.70;91.10;;;;;;5134995;27;20246;-73
2023/07/24 03:17:23;;;;;;;;;;;30.80;91.30;;;;;;5134935;27;19926;-73
2023/07/24 03:19:49;;;;;;;;;;;30.80;90.40;;;;;;5134277;27;19903;-73
2023/07/24 03:22:15;;;;;;;;;;;30.80;90.70;;;;;;5132221;27;19956;-73
2023/07/24 03:24:41;;;;;;;;;;;30.70;90.10;;;;;;5134583;27;19918;-74
2023/07/24 03:27:06;;;;;;;;;;;30.80;89.70;;;;;;5134101;27;19903;-74
2023/07/24 03:29:32;;;;;;;;;;;30.80;89.40;;;;;;5133956;27;20481;-74
2023/07/24 03:31:58;;;;;;;;;;;30.80;89.30;;;;;;5133848;27;19916;-74
2023/07/24 03:34:24;;;;;;;;;;;30.80;88.70;;;;;;5134030;27;19907;-73
2023/07/24 03:36:49;;;;;;;;;;;30.80;90.10;;;;;;5132707;27;19954;-73
2023/07/24 03:39:15;;;;;;;;;;;30.90;89.00;;;;;;5134126;27;20377;-73
2023/07/24 03:41:42;;;;;;;;;;;30.90;88.90;;;;;;5134396;27;19949;-73
2023/07/24 03:44:08;;;;;;;;;;;30.80;88.00;;;;;;5133663;27;19912;-73
2023/07/24 03:46:33;;;;;;;;;;;30.80;86.70;;;;;;5135037;27;19926;-74
2023/07/24 03:48:59;;;;;;;;;;;30.90;86.80;;;;;;5134258;27;20289;-74
2023/07/24 03:51:25;;;;;;;;;;;31.00;85.80;;;;;;5134208;27;19957;-73
2023/07/24 03:53:51;;;;;;;;;;;31.00;85.80;;;;;;5134332;27;19903;-73
2023/07/24 03:56:17;;;;;;;;;;;31.00;85.90;;;;;;5134059;28;19904;-74
2023/07/24 03:58:43;;;;;;;;;;;31.00;84.70;;;;;;5133665;27;19904;-73
2023/07/24 04:01:09;;;;;;;;;;;31.00;84.50;;;;;;5134082;27;19957;-73
2023/07/24 04:03:35;;;;;;;;;;;31.00;83.10;;;;;;5133624;27;19923;-73
2023/07/24 04:06:01;;;;;;;;;;;31.10;82.10;;;;;;5132367;28;19904;-73
2023/07/24 04:08:26;;;;;;;;;;;31.10;81.60;;;;;;5133570;27;19911;-73
2023/07/24 04:10:52;;;;;;;;;;;31.10;82.70;;;;;;5133667;27;19956;-73
2023/07/24 04:13:18;;;;;;;;;;;31.00;82.90;;;;;;5133556;27;19956;-73
2023/07/24 04:15:44;;;;;;;;;;;31.00;83.20;;;;;;5133601;27;19907;-73
2023/07/24 04:18:10;;;;;;;;;;;31.00;78.60;;;;;;5133594;27;19903;-73
2023/07/24 04:20:36;;;;;;;;;;;31.20;78.90;;;;;;5133614;27;19903;-73
2023/07/24 04:23:02;;;;;;;;;;;31.20;80.10;;;;;;5133533;27;19907;-73
2023/07/24 04:25:28;;;;;;;;;;;31.20;81.00;;;;;;5133502;28;20283;-73
2023/07/24 04:27:53;;;;;;;;;;;31.30;78.70;;;;;;5133337;28;19908;-74
2023/07/24 04:30:19;;;;;;;;;;;31.30;76.00;;;;;;5132096;28;19959;-74
2023/07/24 04:32:46;;;;;;;;;;;31.50;77.60;;;;;;5134939;27;20362;-74
2023/07/24 04:35:12;;;;;;;;;;;31.60;70.30;;;;;;5136092;27;20455;-74
2023/07/24 04:37:37;;;;;;;;;;;31.80;71.90;;;;;;5137727;27;20032;-73
2023/07/24 04:40:04;;;;;;;;;;;31.90;71.50;;;;;;5136114;27;19927;-74
2023/07/24 04:42:29;;;;;;;;;;;32.00;68.90;;;;;;5137015;27;19903;-74
2023/07/24 04:44:55;;;;;;;;;;;32.10;71.50;;;;;;5137185;27;19918;-74
2023/07/24 04:47:21;;;;;;;;;;;32.10;71.60;;;;;;5137158;27;19998;-74
2023/07/24 04:49:47;;;;;;;;;;;32.10;74.10;;;;;;5137379;27;19903;-74
2023/07/24 04:52:12;;;;;;;;;;;32.00;73.80;;;;;;5137062;27;19956;-74
2023/07/24 04:54:38;;;;;;;;;;;32.00;74.70;;;;;;5137042;27;19904;-74
2023/07/24 04:57:04;;;;;;;;;;;32.10;71.30;;;;;;5136975;27;19953;-74
2023/07/24 04:59:30;;;;;;;;;;;32.20;67.90;;;;;;5136838;27;19903;-75
2023/07/24 05:01:56;;;;;;;;;;;32.40;66.10;;;;;;5136941;27;19910;-73
2023/07/24 05:04:22;;;;;;;;;;;32.40;69.70;;;;;;5136713;27;19980;-73
2023/07/24 05:06:47;;;;;;;;;;;32.40;70.70;;;;;;5135664;27;19907;-74
2023/07/24 05:09:14;;;;;;;;;;;32.50;65.20;;;;;;5137221;27;19903;-74
2023/07/24 05:11:40;;;;;;;;;;;32.60;69.60;;;;;;5136333;27;19904;-74
2023/07/24 05:14:06;;;;;;;;;;;32.80;70.00;;;;;;5136382;27;20265;-73
2023/07/24 05:16:31;;;;;;;;;;;33.80;67.50;;;;;;5134813;27;20342;-74
2023/07/24 05:18:57;;;;;;;;;;;34.90;66.70;;;;;;5136576;27;19903;-73
2023/07/24 05:21:23;;;;;;;;;;;35.70;64.30;;;;;;5136485;27;20358;-73
2023/07/24 05:23:49;;;;;;;;;;;36.40;63.80;;;;;;5135939;27;19912;-73
2023/07/24 05:26:15;;;;;;;;;;;37.00;62.10;;;;;;5135881;27;19964;-73
2023/07/24 05:28:40;;;;;;;;;;;37.60;60.40;;;;;;5135845;27;19903;-74
2023/07/24 05:31:07;;;;;;;;;;;38.00;58.90;;;;;;5134747;27;19903;-74
2023/07/24 05:33:33;;;;;;;;;;;38.60;57.70;;;;;;5135920;27;19920;-74
2023/07/24 05:36:00;;;;;;;;;;;38.60;55.00;;;;;;5136236;27;20240;-73
2023/07/24 05:38:26;;;;;;;;;;;39.10;53.10;;;;;;5136215;27;19904;-74
2023/07/24 05:40:58;;;;;;;;;;;39.90;53.70;;;;;;5136133;27;19903;-74
2023/07/24 05:43:24;;;;;;;;;;;40.00;52.40;;;;;;5133968;27;19962;-73
2023/07/24 05:45:51;;;;;;;;;;;40.20;51.60;;;;;;5135328;27;19961;-74
2023/07/24 05:48:17;;;;;;;;;;;40.70;50.20;;;;;;5136012;27;19903;-74
2023/07/24 05:50:43;;;;;;;;;;;41.50;48.00;;;;;;5134265;27;19911;-74
2023/07/24 05:53:09;;;;;;;;;;;42.50;46.00;;;;;;5135619;27;19903;-74
2023/07/24 05:55:34;;;;;;;;;;;42.50;45.00;;;;;;5135802;27;19914;-73
2023/07/24 05:58:00;;;;;;;;;;;42.40;45.00;;;;;;5135467;27;19960;-74
2023/07/24 06:00:26;;;;;;;;;;;42.70;44.20;;;;;;5135381;27;20212;-73
2023/07/24 06:02:52;;;;;;;;;;;43.60;42.80;;;;;;5135790;27;19911;-74
2023/07/24 06:05:19;;;;;;;;;;;44.30;41.30;;;;;;5133902;27;19904;-74
2023/07/24 06:07:47;;;;;;;;;;;45.00;40.00;;;;;;5135545;27;19935;-74
2023/07/24 06:10:13;;;;;;;;;;;44.80;40.20;;;;;;5135392;27;19904;-75
2023/07/24 06:12:39;;;;;;;;;;;45.00;39.40;;;;;;5135569;27;19910;-74
2023/07/24 06:15:06;;;;;;;;;;;45.10;39.00;;;;;;5135180;27;19914;-74
2023/07/24 06:17:32;;;;;;;;;;;45.80;38.10;;;;;;5135158;27;19977;-75
2023/07/24 06:19:57;;;;;;;;;;;45.90;36.20;;;;;;5134839;27;20370;-74
2023/07/24 06:22:23;;;;;;;;;;;46.00;35.70;;;;;;5134895;27;20006;-74
2023/07/24 06:24:49;;;;;;;;;;;46.70;35.50;;;;;;5135058;27;19952;-73
2023/07/24 06:27:15;;;;;;;;;;;47.80;34.50;;;;;;5134918;27;19903;-74
2023/07/24 06:29:41;;;;;;;;;;;48.50;34.20;;;;;;5134474;27;19903;-74
2023/07/24 06:32:07;;;;;;;;;;;49.00;34.60;;;;;;5134830;27;20282;-74
2023/07/24 06:34:33;;;;;;;;;;;50.00;32.40;;;;;;5133411;27;19952;-75
2023/07/24 06:36:59;;;;;;;;;;;50.40;32.00;;;;;;5133485;27;19904;-75
2023/07/24 06:39:25;;;;;;;;;;;50.00;33.20;;;;;;5134584;27;19911;-74
2023/07/24 06:41:54;;;;;;;;;;;50.80;32.20;;;;;;5134607;27;20274;-74
2023/07/24 06:44:19;;;;;;;;;;;50.70;31.30;;;;;;5134291;27;19912;-75
2023/07/24 06:46:45;;;;;;;;;;;51.30;31.50;;;;;;5134773;27;19903;-74
2023/07/24 06:49:11;;;;;;;;;;;52.00;32.10;;;;;;5134903;27;20073;-75
2023/07/24 06:51:38;;;;;;;;;;;52.00;31.40;;;;;;5134830;27;19933;-75
2023/07/24 06:54:04;;;;;;;;;;;52.20;31.30;;;;;;5134591;27;20414;-74
2023/07/24 06:56:30;;;;;;;;;;;52.00;28.80;;;;;;5134609;27;19937;-75
2023/07/24 06:58:57;;;;;;;;;;;52.00;28.70;;;;;;5134154;27;19903;-74
2023/07/24 07:01:24;;;;;;;;;;;52.30;27.60;;;;;;5134263;27;19948;-74
2023/07/24 07:03:49;;;;;;;;;;;51.90;26.60;;;;;;5132868;27;19912;-74
2023/07/24 07:06:15;;;;;;;;;;;52.00;27.30;;;;;;5134513;27;19903;-74
2023/07/24 07:08:41;;;;;;;;;;;52.30;27.20;;;;;;5134379;27;19910;-75
2023/07/24 07:11:07;;;;;;;;;;;52.00;26.70;;;;;;5135015;27;19903;-74
2023/07/24 07:13:33;;;;;;;;;;;51.90;27.10;;;;;;5134153;27;19961;-73
2023/07/24 07:15:59;;;;;;;;;;;50.80;27.30;;;;;;5134056;27;19903;-74
2023/07/24 07:18:24;;;;;;;;;;;49.90;27.60;;;;;;5134060;27;19907;-74
2023/07/24 07:20:51;;;;;;;;;;;48.90;27.60;;;;;;5134179;27;19903;-74
2023/07/24 07:23:17;;;;;;;;;;;49.00;28.60;;;;;;5133889;27;19960;-74
2023/07/24 07:25:45;;;;;;;;;;;49.70;29.70;;;;;;5134083;27;19904;-74
2023/07/24 07:28:11;;;;;;;;;;;49.10;30.20;;;;;;5133757;27;19903;-74
2023/07/24 07:30:37;;;;;;;;;;;48.70;30.60;;;;;;5134012;27;20001;-74
2023/07/24 07:33:04;;;;;;;;;;;47.80;30.70;;;;;;5133705;27;19963;-74
2023/07/24 07:35:30;;;;;;;;;;;46.90;32.10;;;;;;5133883;27;19914;-74
2023/07/24 07:37:57;;;;;;;;;;;46.50;33.10;;;;;;5133697;27;19919;-74
2023/07/24 07:40:23;;;;;;;;;;;45.60;35.30;;;;;;5134021;27;19914;-74
2023/07/24 07:42:49;;;;;;;;;;;45.40;36.50;;;;;;5133646;27;19903;-74
2023/07/24 07:45:14;;;;;;;;;;;44.60;38.60;;;;;;5132351;27;19912;-74
2023/07/24 07:47:40;;;;;;;;;;;44.70;40.10;;;;;;5132305;28;19903;-74
2023/07/24 07:50:06;;;;;;;;;;;44.70;41.70;;;;;;5134118;28;19957;-74
2023/07/24 07:52:32;;;;;;;;;;;44.80;42.80;;;;;;5133337;27;19911;-74
2023/07/24 07:54:58;;;;;;;;;;;44.90;43.50;;;;;;5133601;27;19943;-73
2023/07/24 07:57:23;;;;;;;;;;;44.30;45.30;;;;;;5134008;27;19911;-75
2023/07/24 07:59:49;;;;;;;;;;;44.30;46.10;;;;;;5133432;28;19903;-74
2023/07/24 08:02:15;;;;;;;;;;;44.00;46.00;;;;;;5133584;28;19942;-74
2023/07/24 08:04:41;;;;;;;;;;;43.80;46.10;;;;;;5133728;27;19918;-73
2023/07/24 08:07:07;;;;;;;;;;;44.00;45.40;;;;;;5133844;27;19904;-74
2023/07/24 08:09:33;;;;;;;;;;;43.40;45.00;;;;;;5137656;27;19926;-73
2023/07/24 08:11:59;;;;;;;;;;;43.30;43.70;;;;;;5137842;27;19911;-73
2023/07/24 08:14:25;;;;;;;;;;;43.10;43.60;;;;;;5137424;27;19907;-74
2023/07/24 08:16:51;;;;;;;;;;;42.50;43.70;;;;;;5137711;27;19908;-74
2023/07/24 08:19:17;;;;;;;;;;;42.60;42.80;;;;;;5138372;27;19958;-74
2023/07/24 08:21:42;;;;;;;;;;;43.10;43.00;;;;;;5136303;27;19904;-74
2023/07/24 08:24:08;;;;;;;;;;;43.10;43.40;;;;;;5137268;27;19912;-74
2023/07/24 08:26:34;;;;;;;;;;;43.30;43.50;;;;;;5137589;27;19903;-74
2023/07/24 08:29:00;;;;;;;;;;;43.60;41.20;;;;;;5135812;27;19903;-75
2023/07/24 08:31:26;;;;;;;;;;;43.40;41.40;;;;;;5137586;27;19907;-74
2023/07/24 08:33:51;;;;;;;;;;;43.30;42.40;;;;;;5137657;27;20006;-75
2023/07/24 08:36:17;;;;;;;;;;;43.40;40.60;;;;;;5137539;27;19910;-75
2023/07/24 08:38:43;;;;;;;;;;;43.70;41.40;;;;;;5137237;27;19911;-74
2023/07/24 08:41:09;;;;;;;;;;;43.40;39.80;;;;;;5137211;27;19915;-74
2023/07/24 08:43:35;;;;;;;;;;;43.50;40.90;;;;;;5137178;27;19911;-74
2023/07/24 08:46:02;;;;;;;;;;;43.30;42.00;;;;;;5137366;27;20274;-74
2023/07/24 08:48:35;;;;;;;;;;;43.30;41.00;;;;;;5136807;27;19903;-73
2023/07/24 08:51:05;;;;;;;;;;;43.00;41.00;;;;;;5137970;27;19949;-73
2023/07/24 08:53:32;;;;;;;;;;;43.00;41.50;;;;;;5135756;27;19994;-74
2023/07/24 08:55:59;;;;;;;;;;;43.30;41.30;;;;;;5137039;27;19903;-74
2023/07/24 08:58:25;;;;;;;;;;;42.50;41.50;;;;;;5136792;27;20286;-73
2023/07/24 09:00:51;;;;;;;;;;;42.20;42.90;;;;;;5136768;27;20351;-73
2023/07/24 09:03:18;;;;;;;;;;;42.40;43.40;;;;;;5136539;27;19979;-73
2023/07/24 09:05:44;;;;;;;;;;;42.90;43.90;;;;;;5136910;27;19903;-74
2023/07/24 09:08:10;;;;;;;;;;;42.70;43.40;;;;;;5136357;27;20120;-74
2023/07/24 09:10:36;;;;;;;;;;;42.50;43.50;;;;;;5136484;27;19978;-73
2023/07/24 09:13:03;;;;;;;;;;;42.40;44.10;;;;;;5136334;27;20403;-73
2023/07/24 09:15:49;;;;;;;;;;;42.30;43.20;;;;;;5136590;27;19991;-73
2023/07/24 09:18:16;;;;;;;;;;;41.90;43.40;;;;;;5135898;27;19907;-73
2023/07/24 09:20:43;;;;;;;;;;;42.20;44.60;;;;;;5135510;27;19904;-73
2023/07/24 09:23:09;;;;;;;;;;;42.20;45.20;;;;;;5135997;27;19907;-72
2023/07/24 09:25:36;;;;;;;;;;;42.10;45.00;;;;;;5136549;27;20003;-73
2023/07/24 09:28:12;;;;;;;;;;;41.90;45.30;;;;;;5136048;27;19903;-73
2023/07/24 09:30:38;;;;;;;;;;;42.00;44.50;;;;;;5136453;27;19903;-73
2023/07/24 09:33:04;;;;;;;;;;;41.90;44.60;;;;;;5135979;27;19919;-73
2023/07/24 09:35:31;;;;;;;;;;;41.60;44.50;;;;;;5136079;27;19910;-75
2023/07/24 09:38:07;;;;;;;;;;;41.60;44.30;;;;;;5136510;27;19907;-73
2023/07/24 09:40:42;;;;;;;;;;;41.30;45.10;;;;;;5136058;27;19960;-72
2023/07/24 09:43:24;;;;;;;;;;;41.30;45.70;;;;;;5135582;27;20374;-73
2023/07/24 09:45:51;;;;;;;;;;;41.10;46.40;;;;;;5135911;27;19935;-72
2023/07/24 09:48:18;;;;;;;;;;;40.50;47.60;;;;;;5135772;27;19910;-73
2023/07/24 09:50:48;;;;;;;;;;;40.50;47.30;;;;;;5135832;27;19903;-73
2023/07/24 09:53:32;;;;;;;;;;;40.30;47.90;;;;;;5135747;27;19903;-73
2023/07/24 09:55:59;;;;;;;;;;;40.20;47.80;;;;;;5135534;27;19995;-73
2023/07/24 09:58:25;;;;;;;;;;;40.30;48.90;;;;;;5135405;27;19915;-73
2023/07/24 10:00:55;;;;;;;;;;;40.10;49.20;;;;;;5135490;27;19904;-73
2023/07/24 10:03:22;;;;;;;;;;;40.30;49.70;;;;;;5133982;27;19964;-72
2023/07/24 10:05:48;;;;;;;;;;;40.20;50.00;;;;;;5135486;27;20260;-73
2023/07/24 10:08:18;;;;;;;;;;;40.20;49.50;;;;;;5135497;27;19956;-72
2023/07/24 10:10:44;;;;;;;;;;;40.20;49.50;;;;;;5135340;27;19938;-73
2023/07/24 10:13:13;;;;;;;;;;;40.20;50.80;;;;;;5135498;27;19915;-73
2023/07/24 10:15:39;;;;;;;;;;;40.00;51.70;;;;;;5135916;27;19911;-73
2023/07/24 10:18:06;;;;;;;;;;;39.90;53.40;;;;;;5135234;27;19914;-73
2023/07/24 10:20:36;;;;;;;;;;;39.90;52.30;;;;;;5133676;27;20381;-73
2023/07/24 10:23:07;;;;;;;;;;;39.60;52.20;;;;;;5133297;27;19962;-73
2023/07/24 10:25:34;;;;;;;;;;;39.60;53.50;;;;;;5135122;27;19943;-73
2023/07/24 10:28:07;;;;;;;;;;;39.50;53.80;;;;;;5135214;27;20344;-74
2023/07/24 10:30:35;;;;;;;;;;;39.60;54.90;;;;;;5134593;27;19904;-73
2023/07/24 10:33:20;;;;;;;;;;;39.40;55.40;;;;;;5134424;27;19922;-74
2023/07/24 10:35:47;;;;;;;;;;;39.50;55.80;;;;;;5134779;27;20353;-73
2023/07/24 10:38:14;;;;;;;;;;;39.50;54.80;;;;;;5134875;27;20360;-74
2023/07/24 10:40:41;;;;;;;;;;;39.50;56.60;;;;;;5134799;27;19903;-74
2023/07/24 10:43:08;;;;;;;;;;;39.60;56.20;;;;;;5134593;27;19914;-73
2023/07/24 10:45:39;;;;;;;;;;;39.40;55.80;;;;;;5134862;27;19907;-74
2023/07/24 10:48:05;;;;;;;;;;;39.40;55.10;;;;;;5135226;27;19907;-73
2023/07/24 10:50:38;;;;;;;;;;;39.30;54.70;;;;;;5134991;27;19926;-73
2023/07/24 10:53:04;;;;;;;;;;;39.30;54.30;;;;;;5134617;27;19960;-74
2023/07/24 10:55:30;;;;;;;;;;;39.30;55.80;;;;;;5134873;27;19904;-74
2023/07/24 10:57:56;;;;;;;;;;;39.30;56.80;;;;;;5134173;27;19911;-73
2023/07/24 11:00:21;;;;;;;;;;;39.50;56.60;;;;;;5134832;27;20334;-73
2023/07/24 11:02:47;;;;;;;;;;;39.40;55.70;;;;;;5134331;27;19903;-75
2023/07/24 11:05:13;;;;;;;;;;;39.20;56.10;;;;;;5135235;27;19995;-74
2023/07/24 11:07:39;;;;;;;;;;;39.20;57.00;;;;;;5134426;27;19909;-74
2023/07/24 11:10:18;;;;;;;;;;;39.10;57.00;;;;;;5134189;27;19907;-73
2023/07/24 11:12:44;;;;;;;;;;;39.40;56.50;;;;;;5134645;27;19994;-74
2023/07/24 11:15:11;;;;;;;;;;;39.40;56.50;;;;;;5134092;27;19903;-74
2023/07/24 11:17:40;;;;;;;;;;;39.70;55.00;;;;;;5134383;27;19941;-74
2023/07/24 11:20:06;;;;;;;;;;;40.00;54.90;;;;;;5134210;27;19911;-74
2023/07/24 11:22:33;;;;;;;;;;;40.00;53.80;;;;;;5134463;27;19911;-74
2023/07/24 11:24:59;;;;;;;;;;;40.20;54.30;;;;;;5135012;27;19918;-74
2023/07/24 11:27:25;;;;;;;;;;;39.90;52.40;;;;;;5134185;27;19910;-75
2023/07/24 11:29:51;;;;;;;;;;;39.80;53.50;;;;;;5133868;27;19919;-74
2023/07/24 11:32:20;;;;;;;;;;;39.60;53.10;;;;;;5134158;27;20404;-75
2023/07/24 11:34:48;;;;;;;;;;;39.80;55.50;;;;;;5132591;27;20367;-74
2023/07/24 11:37:14;;;;;;;;;;;39.90;53.40;;;;;;5133868;27;20006;-75
2023/07/24 11:39:40;;;;;;;;;;;39.70;52.80;;;;;;5133842;27;19903;-75
2023/07/24 11:42:06;;;;;;;;;;;39.80;53.10;;;;;;5133091;27;19914;-74
2023/07/24 11:44:32;;;;;;;;;;;39.90;53.10;;;;;;5133775;27;20329;-75
2023/07/24 11:47:04;;;;;;;;;;;39.90;53.60;;;;;;5134087;27;20010;-74
2023/07/24 11:49:31;;;;;;;;;;;39.90;54.10;;;;;;5133753;27;20266;-74
2023/07/24 11:52:06;;;;;;;;;;;39.90;55.60;;;;;;5132224;28;19979;-74
2023/07/24 11:54:34;;;;;;;;;;;39.90;54.50;;;;;;5133629;27;20286;-74
2023/07/24 11:56:59;;;;;;;;;;;39.90;55.40;;;;;;5133706;27;19910;-74
2023/07/24 11:59:26;;;;;;;;;;;39.90;54.60;;;;;;5131999;28;20005;-74
2023/07/24 12:01:52;;;;;;;;;;;39.70;55.10;;;;;;5132379;28;19914;-74
2023/07/24 12:04:18;;;;;;;;;;;39.80;54.80;;;;;;5133801;27;19911;-74
2023/07/24 12:06:44;;;;;;;;;;;39.90;54.70;;;;;;5133592;28;19951;-74
2023/07/24 12:09:10;;;;;;;;;;;40.00;55.50;;;;;;5133789;27;19904;-74
2023/07/24 12:11:43;;;;;;;;;;;39.90;55.60;;;;;;5134224;27;19911;-75
2023/07/24 12:14:09;;;;;;;;;;;39.70;53.70;;;;;;5133451;27;19910;-74
2023/07/24 12:16:36;;;;;;;;;;;39.60;54.40;;;;;;5133938;27;19908;-74
2023/07/24 12:19:02;;;;;;;;;;;39.60;54.40;;;;;;5133687;27;19911;-74
2023/07/24 12:21:27;;;;;;;;;;;39.60;57.20;;;;;;5133490;27;19903;-74
2023/07/24 12:23:53;;;;;;;;;;;39.70;54.70;;;;;;5133550;27;20434;-75
2023/07/24 12:26:19;;;;;;;;;;;39.90;55.00;;;;;;5133944;27;20005;-74
2023/07/24 12:28:54;;;;;;;;;;;39.90;53.00;;;;;;5131830;28;19939;-74
2023/07/24 12:31:20;;;;;;;;;;;40.00;51.80;;;;;;5133349;27;19903;-75
2023/07/24 12:33:46;;;;;;;;;;;40.00;53.40;;;;;;5132245;28;19926;-74
2023/07/24 12:36:12;;;;;;;;;;;40.10;53.60;;;;;;5133855;28;19980;-74
2023/07/24 12:38:37;;;;;;;;;;;40.20;53.50;;;;;;5133775;28;19903;-74
2023/07/24 12:41:03;;;;;;;;;;;40.30;53.20;;;;;;5132143;28;20309;-75
2023/07/24 12:43:29;;;;;;;;;;;40.40;51.60;;;;;;5133216;28;19907;-75
2023/07/24 12:45:55;;;;;;;;;;;40.50;51.50;;;;;;5133511;28;19903;-74
2023/07/24 12:48:20;;;;;;;;;;;40.30;51.70;;;;;;5133838;28;20438;-74
2023/07/24 12:50:46;;;;;;;;;;;40.10;51.10;;;;;;5131986;28;19904;-75
2023/07/24 12:53:12;;;;;;;;;;;40.10;52.50;;;;;;5134033;27;19904;-74
2023/07/24 12:55:38;;;;;;;;;;;40.10;49.90;;;;;;5137981;27;19964;-74
2023/07/24 12:58:04;;;;;;;;;;;40.10;50.70;;;;;;5137106;27;20313;-74
2023/07/24 13:00:30;;;;;;;;;;;40.00;52.10;;;;;;5135679;27;19914;-74
2023/07/24 13:02:55;;;;;;;;;;;39.70;52.70;;;;;;5137425;27;20305;-73
2023/07/24 13:05:21;;;;;;;;;;;39.80;53.60;;;;;;5137242;27;19923;-73
2023/07/24 13:07:47;;;;;;;;;;;40.10;53.80;;;;;;5136936;27;20002;-74
2023/07/24 13:10:13;;;;;;;;;;;40.10;53.30;;;;;;5136853;27;19998;-74
2023/07/24 13:12:39;;;;;;;;;;;40.10;52.80;;;;;;5136776;27;19903;-74
2023/07/24 13:15:05;;;;;;;;;;;40.20;52.90;;;;;;5135306;27;20002;-74
2023/07/24 13:17:30;;;;;;;;;;;40.30;53.20;;;;;;5135409;27;19911;-74
2023/07/24 13:19:56;;;;;;;;;;;40.40;53.90;;;;;;5137276;27;19904;-74
2023/07/24 13:22:22;;;;;;;;;;;40.20;54.80;;;;;;5135230;27;19998;-74
2023/07/24 13:24:48;;;;;;;;;;;40.00;53.20;;;;;;5135186;27;19911;-73
2023/07/24 13:27:14;;;;;;;;;;;40.10;54.20;;;;;;5137050;27;19956;-74
2023/07/24 13:29:39;;;;;;;;;;;40.10;54.00;;;;;;5136404;27;19904;-74
2023/07/24 13:32:06;;;;;;;;;;;40.00;54.10;;;;;;5136223;27;19916;-74
2023/07/24 13:34:32;;;;;;;;;;;39.90;55.00;;;;;;5136809;27;20439;-74
2023/07/24 13:36:58;;;;;;;;;;;40.00;55.00;;;;;;5136616;27;19952;-74
2023/07/24 13:39:24;;;;;;;;;;;40.10;56.10;;;;;;5136340;27;19903;-74
2023/07/24 13:41:49;;;;;;;;;;;40.00;56.70;;;;;;5136540;27;19914;-74
2023/07/24 13:44:15;;;;;;;;;;;40.10;55.10;;;;;;5135952;27;19919;-74
2023/07/24 13:46:41;;;;;;;;;;;40.10;56.30;;;;;;5136223;27;20336;-74
2023/07/24 13:49:07;;;;;;;;;;;40.00;56.50;;;;;;5136116;27;19986;-74
2023/07/24 13:51:33;;;;;;;;;;;39.90;56.50;;;;;;5136360;27;19993;-74
2023/07/24 13:53:59;;;;;;;;;;;39.90;55.70;;;;;;5136103;27;19903;-74
2023/07/24 13:56:26;;;;;;;;;;;39.80;56.50;;;;;;5136019;27;19910;-74
2023/07/24 13:58:52;;;;;;;;;;;39.90;55.40;;;;;;5135839;27;19923;-74
2023/07/24 14:01:18;;;;;;;;;;;39.70;55.20;;;;;;5136329;27;19911;-74
2023/07/24 14:03:44;;;;;;;;;;;39.60;53.80;;;;;;5135999;27;19954;-74
2023/07/24 14:06:10;;;;;;;;;;;39.50;53.60;;;;;;5135601;27;19907;-74
2023/07/24 14:08:36;;;;;;;;;;;39.20;55.40;;;;;;5135707;27;20009;-74
2023/07/24 14:11:02;;;;;;;;;;;39.40;52.90;;;;;;5135982;27;19904;-74
2023/07/24 14:13:28;;;;;;;;;;;39.40;53.70;;;;;;5135526;27;19904;-74